sensor_id;sensor_type;location;lat;lon;timestamp;pressure;altitude;pressure_sealevel;temperature;humidity
25430;BME280;13360;48.152;-1.788;2023-05-10T00:01:09;101765.59;;;15.36;100.00
25430;BME280;13360;48.152;-1.788;2023-05-10T00:03:35;101784.34;;;15.31;100.00
25430;BME280;13360;48.152;-1.788;2023-05-10T00:06:00;101797.22;;;15.27;100.00
25430;BME280;13360;48.152;-1.788;2023-05-10T00:08:25;101801.97;;;15.26;100.00
25430;BME280;13360;48.152;-1.788;2023-05-10T00:10:50;101814.13;;;15.30;100.00
25430;BME280;13360;48.152;-1.788;2023-05-10T00:13:16;101822.47;;;15.30;100.00
25430;BME280;13360;48.152;-1.788;2023-05-10T00:15:41;101809.78;;;15.24;100.00
25430;BME280;13360;48.152;-1.788;2023-05-10T00:18:06;101808.72;;;15.20;100.00
25430;BME280;13360;48.152;-1.788;2023-05-10T00:20:31;101806.84;;;15.15;100.00
25430;BME280;13360;48.152;-1.788;2023-05-10T00:22:56;101825.72;;;15.18;100.00
25430;BME280;13360;48.152;-1.788;2023-05-10T00:25:22;101811.06;;;15.13;100.00
25430;BME280;13360;48.152;-1.788;2023-05-10T00:27:47;101805.66;;;15.03;100.00
25430;BME280;13360;48.152;-1.788;2023-05-10T00:30:12;101806.53;;;14.98;100.00
25430;BME280;13360;48.152;-1.788;2023-05-10T00:32:38;101806.25;;;14.81;100.00
25430;BME280;13360;48.152;-1.788;2023-05-10T00:35:03;101824.75;;;14.90;100.00
25430;BME280;13360;48.152;-1.788;2023-05-10T00:37:28;101839.41;;;14.96;100.00
25430;BME280;13360;48.152;-1.788;2023-05-10T00:39:54;101837.53;;;14.91;100.00
25430;BME280;13360;48.152;-1.788;2023-05-10T00:42:19;101834.22;;;14.89;100.00
25430;BME280;13360;48.152;-1.788;2023-05-10T00:44:44;101849.41;;;14.97;100.00
25430;BME280;13360;48.152;-1.788;2023-05-10T00:47:09;101845.47;;;14.98;100.00
25430;BME280;13360;48.152;-1.788;2023-05-10T00:49:35;101832.69;;;14.97;100.00
25430;BME280;13360;48.152;-1.788;2023-05-10T00:52:00;101847.13;;;14.99;100.00
25430;BME280;13360;48.152;-1.788;2023-05-10T00:54:27;101839.91;;;14.98;100.00
25430;BME280;13360;48.152;-1.788;2023-05-10T00:56:52;101838.78;;;14.99;100.00
25430;BME280;13360;48.152;-1.788;2023-05-10T00:59:18;101845.47;;;14.98;100.00
25430;BME280;13360;48.152;-1.788;2023-05-10T01:01:44;101843.00;;;14.97;100.00
25430;BME280;13360;48.152;-1.788;2023-05-10T01:04:10;101842.69;;;14.98;100.00
25430;BME280;13360;48.152;-1.788;2023-05-10T01:06:36;101842.13;;;15.01;100.00
25430;BME280;13360;48.152;-1.788;2023-05-10T01:09:01;101849.91;;;14.99;100.00
25430;BME280;13360;48.152;-1.788;2023-05-10T01:11:27;101828.88;;;14.93;100.00
25430;BME280;13360;48.152;-1.788;2023-05-10T01:13:54;101840.00;;;14.93;100.00
25430;BME280;13360;48.152;-1.788;2023-05-10T01:16:20;101829.47;;;14.90;100.00
25430;BME280;13360;48.152;-1.788;2023-05-10T01:18:46;101821.22;;;14.85;100.00
25430;BME280;13360;48.152;-1.788;2023-05-10T01:31:08;101807.28;;;14.66;100.00
25430;BME280;13360;48.152;-1.788;2023-05-10T01:39:14;101817.50;;;14.71;100.00
25430;BME280;13360;48.152;-1.788;2023-05-10T01:42:02;101823.28;;;14.74;100.00
25430;BME280;13360;48.152;-1.788;2023-05-10T01:47:07;101805.63;;;14.65;100.00
25430;BME280;13360;48.152;-1.788;2023-05-10T01:49:36;101806.75;;;14.64;100.00
25430;BME280;13360;48.152;-1.788;2023-05-10T01:52:06;101804.28;;;14.62;100.00
25430;BME280;13360;48.152;-1.788;2023-05-10T01:54:33;101818.47;;;14.61;100.00
25430;BME280;13360;48.152;-1.788;2023-05-10T01:57:00;101810.53;;;14.49;100.00
25430;BME280;13360;48.152;-1.788;2023-05-10T01:59:29;101808.66;;;14.45;100.00
25430;BME280;13360;48.152;-1.788;2023-05-10T02:01:56;101834.13;;;14.52;100.00
25430;BME280;13360;48.152;-1.788;2023-05-10T02:04:22;101833.53;;;14.55;100.00
25430;BME280;13360;48.152;-1.788;2023-05-10T02:06:48;101827.75;;;14.51;100.00
25430;BME280;13360;48.152;-1.788;2023-05-10T02:09:15;101833.31;;;14.51;100.00
25430;BME280;13360;48.152;-1.788;2023-05-10T02:11:41;101835.88;;;14.48;100.00
25430;BME280;13360;48.152;-1.788;2023-05-10T02:14:07;101844.97;;;14.53;100.00
25430;BME280;13360;48.152;-1.788;2023-05-10T02:16:33;101842.78;;;14.50;100.00
25430;BME280;13360;48.152;-1.788;2023-05-10T02:19:00;101852.25;;;14.49;100.00
25430;BME280;13360;48.152;-1.788;2023-05-10T02:21:26;101863.44;;;14.44;100.00
25430;BME280;13360;48.152;-1.788;2023-05-10T02:23:52;101864.28;;;14.40;100.00
25430;BME280;13360;48.152;-1.788;2023-05-10T02:26:18;101874.59;;;14.39;100.00
25430;BME280;13360;48.152;-1.788;2023-05-10T02:28:46;101882.63;;;14.41;100.00
25430;BME280;13360;48.152;-1.788;2023-05-10T02:31:12;101885.66;;;14.44;100.00
25430;BME280;13360;48.152;-1.788;2023-05-10T02:33:39;101887.34;;;14.40;100.00
25430;BME280;13360;48.152;-1.788;2023-05-10T02:36:05;101881.50;;;14.42;100.00
25430;BME280;13360;48.152;-1.788;2023-05-10T02:38:32;101894.00;;;14.44;100.00
25430;BME280;13360;48.152;-1.788;2023-05-10T02:40:58;101884.84;;;14.44;100.00
25430;BME280;13360;48.152;-1.788;2023-05-10T02:43:24;101880.97;;;14.40;100.00
25430;BME280;13360;48.152;-1.788;2023-05-10T02:45:49;101870.78;;;14.30;100.00
25430;BME280;13360;48.152;-1.788;2023-05-10T02:48:15;101889.94;;;14.31;100.00
25430;BME280;13360;48.152;-1.788;2023-05-10T02:50:42;101890.75;;;14.32;100.00
25430;BME280;13360;48.152;-1.788;2023-05-10T02:53:15;101893.50;;;14.37;100.00
25430;BME280;13360;48.152;-1.788;2023-05-10T02:55:40;101899.91;;;14.38;100.00
25430;BME280;13360;48.152;-1.788;2023-05-10T02:58:07;101902.38;;;14.39;100.00
25430;BME280;13360;48.152;-1.788;2023-05-10T03:00:33;101889.59;;;14.38;100.00
25430;BME280;13360;48.152;-1.788;2023-05-10T03:02:58;101884.03;;;14.38;100.00
25430;BME280;13360;48.152;-1.788;2023-05-10T03:05:24;101882.38;;;14.37;100.00
25430;BME280;13360;48.152;-1.788;2023-05-10T03:07:49;101890.47;;;14.33;100.00
25430;BME280;13360;48.152;-1.788;2023-05-10T03:10:14;101887.97;;;14.32;100.00
25430;BME280;13360;48.152;-1.788;2023-05-10T03:15:12;101887.81;;;14.23;100.00
25430;BME280;13360;48.152;-1.788;2023-05-10T03:17:51;101902.53;;;14.24;100.00
25430;BME280;13360;48.152;-1.788;2023-05-10T03:20:24;101899.81;;;14.19;100.00
25430;BME280;13360;48.152;-1.788;2023-05-10T03:22:55;101910.91;;;14.19;100.00
25430;BME280;13360;48.152;-1.788;2023-05-10T03:25:21;101913.69;;;14.19;100.00
25430;BME280;13360;48.152;-1.788;2023-05-10T03:27:47;101917.59;;;14.18;100.00
25430;BME280;13360;48.152;-1.788;2023-05-10T03:30:12;101910.94;;;14.14;100.00
25430;BME280;13360;48.152;-1.788;2023-05-10T03:32:38;101929.28;;;14.15;100.00
25430;BME280;13360;48.152;-1.788;2023-05-10T03:35:07;101925.38;;;14.16;100.00
25430;BME280;13360;48.152;-1.788;2023-05-10T03:37:33;101922.06;;;14.14;100.00
25430;BME280;13360;48.152;-1.788;2023-05-10T03:39:58;101936.47;;;14.16;100.00
25430;BME280;13360;48.152;-1.788;2023-05-10T03:42:23;101938.72;;;14.14;100.00
25430;BME280;13360;48.152;-1.788;2023-05-10T03:44:49;101941.50;;;14.14;100.00
25430;BME280;13360;48.152;-1.788;2023-05-10T03:47:14;101946.25;;;14.13;100.00
25430;BME280;13360;48.152;-1.788;2023-05-10T03:49:40;101939.31;;;14.11;100.00
25430;BME280;13360;48.152;-1.788;2023-05-10T03:52:05;101941.56;;;14.09;100.00
25430;BME280;13360;48.152;-1.788;2023-05-10T03:54:30;101938.84;;;14.03;100.00
25430;BME280;13360;48.152;-1.788;2023-05-10T03:56:55;101932.22;;;13.99;100.00
25430;BME280;13360;48.152;-1.788;2023-05-10T03:59:21;101945.56;;;13.97;100.00
25430;BME280;13360;48.152;-1.788;2023-05-10T04:01:46;101946.94;;;14.00;100.00
25430;BME280;13360;48.152;-1.788;2023-05-10T04:04:11;101959.69;;;14.01;100.00
25430;BME280;13360;48.152;-1.788;2023-05-10T04:06:37;101960.00;;;13.99;100.00
25430;BME280;13360;48.152;-1.788;2023-05-10T04:09:02;101959.69;;;14.01;100.00
25430;BME280;13360;48.152;-1.788;2023-05-10T04:11:29;101971.63;;;14.01;100.00
25430;BME280;13360;48.152;-1.788;2023-05-10T04:13:54;101967.19;;;14.00;100.00
25430;BME280;13360;48.152;-1.788;2023-05-10T04:16:19;101974.41;;;14.01;100.00
25430;BME280;13360;48.152;-1.788;2023-05-10T04:18:44;101979.69;;;14.03;100.00
25430;BME280;13360;48.152;-1.788;2023-05-10T04:21:13;101975.78;;;14.04;100.00
25430;BME280;13360;48.152;-1.788;2023-05-10T04:23:39;101976.59;;;14.04;100.00
25430;BME280;13360;48.152;-1.788;2023-05-10T04:26:04;101976.91;;;14.03;100.00
25430;BME280;13360;48.152;-1.788;2023-05-10T04:28:29;101982.75;;;14.01;100.00
25430;BME280;13360;48.152;-1.788;2023-05-10T04:31:05;101990.25;;;14.01;100.00
25430;BME280;13360;48.152;-1.788;2023-05-10T04:33:30;101991.66;;;13.98;100.00
25430;BME280;13360;48.152;-1.788;2023-05-10T04:35:56;101998.34;;;13.97;100.00
25430;BME280;13360;48.152;-1.788;2023-05-10T04:38:21;102005.84;;;13.97;100.00
25430;BME280;13360;48.152;-1.788;2023-05-10T04:40:46;102006.97;;;13.96;100.00
25430;BME280;13360;48.152;-1.788;2023-05-10T04:43:12;102008.06;;;13.95;100.00
25430;BME280;13360;48.152;-1.788;2023-05-10T04:45:37;102010.28;;;13.93;100.00
25430;BME280;13360;48.152;-1.788;2023-05-10T04:48:02;102010.59;;;13.91;100.00
25430;BME280;13360;48.152;-1.788;2023-05-10T04:50:27;102014.47;;;13.90;100.00
25430;BME280;13360;48.152;-1.788;2023-05-10T04:52:53;102013.94;;;13.88;100.00
25430;BME280;13360;48.152;-1.788;2023-05-10T04:55:18;102017.84;;;13.87;100.00
25430;BME280;13360;48.152;-1.788;2023-05-10T04:57:43;102021.72;;;13.86;100.00
25430;BME280;13360;48.152;-1.788;2023-05-10T05:00:10;102017.28;;;13.85;100.00
25430;BME280;13360;48.152;-1.788;2023-05-10T05:02:35;102033.66;;;13.87;100.00
25430;BME280;13360;48.152;-1.788;2023-05-10T05:05:00;102041.72;;;13.88;100.00
25430;BME280;13360;48.152;-1.788;2023-05-10T05:07:25;102049.75;;;13.90;100.00
25430;BME280;13360;48.152;-1.788;2023-05-10T05:09:51;102059.47;;;13.92;100.00
25430;BME280;13360;48.152;-1.788;2023-05-10T05:12:16;102077.50;;;13.95;100.00
25430;BME280;13360;48.152;-1.788;2023-05-10T05:14:41;102093.31;;;13.99;100.00
25430;BME280;13360;48.152;-1.788;2023-05-10T05:17:06;102105.25;;;14.00;100.00
25430;BME280;13360;48.152;-1.788;2023-05-10T05:19:32;102119.69;;;14.02;100.00
25430;BME280;13360;48.152;-1.788;2023-05-10T05:21:57;102143.28;;;14.04;100.00
25430;BME280;13360;48.152;-1.788;2023-05-10T05:24:22;102167.72;;;14.08;100.00
25430;BME280;13360;48.152;-1.788;2023-05-10T05:26:48;102168.28;;;14.04;100.00
25430;BME280;13360;48.152;-1.788;2023-05-10T05:29:13;102179.69;;;14.03;100.00
25430;BME280;13360;48.152;-1.788;2023-05-10T05:31:38;102194.69;;;14.07;100.00
25430;BME280;13360;48.152;-1.788;2023-05-10T05:34:04;102221.06;;;14.10;100.00
25430;BME280;13360;48.152;-1.788;2023-05-10T05:36:29;102229.94;;;14.12;100.00
25430;BME280;13360;48.152;-1.788;2023-05-10T05:38:55;102238.81;;;14.14;100.00
25430;BME280;13360;48.152;-1.788;2023-05-10T05:41:20;102252.72;;;14.14;100.00
25430;BME280;13360;48.152;-1.788;2023-05-10T05:43:46;102267.13;;;14.16;100.00
25430;BME280;13360;48.152;-1.788;2023-05-10T05:46:11;102278.00;;;14.12;100.00
25430;BME280;13360;48.152;-1.788;2023-05-10T05:48:37;102304.69;;;14.18;100.00
25430;BME280;13360;48.152;-1.788;2023-05-10T05:51:02;102319.94;;;14.21;100.00
25430;BME280;13360;48.152;-1.788;2023-05-10T05:53:27;102333.28;;;14.24;100.00
25430;BME280;13360;48.152;-1.788;2023-05-10T05:58:19;102355.50;;;14.24;100.00
25430;BME280;13360;48.152;-1.788;2023-05-10T06:00:44;102382.47;;;14.23;100.00
25430;BME280;13360;48.152;-1.788;2023-05-10T06:03:09;102405.25;;;14.25;100.00
25430;BME280;13360;48.152;-1.788;2023-05-10T06:05:35;102427.75;;;14.24;100.00
25430;BME280;13360;48.152;-1.788;2023-05-10T06:08:00;102449.72;;;14.25;100.00
25430;BME280;13360;48.152;-1.788;2023-05-10T06:10:26;102460.53;;;14.32;100.00
25430;BME280;13360;48.152;-1.788;2023-05-10T06:12:51;102478.88;;;14.33;100.00
25430;BME280;13360;48.152;-1.788;2023-05-10T06:15:17;102494.44;;;14.34;100.00
25430;BME280;13360;48.152;-1.788;2023-05-10T06:17:43;102506.13;;;14.36;100.00
25430;BME280;13360;48.152;-1.788;2023-05-10T06:20:09;102514.44;;;14.36;100.00
25430;BME280;13360;48.152;-1.788;2023-05-10T06:22:34;102536.41;;;14.32;100.00
25430;BME280;13360;48.152;-1.788;2023-05-10T06:25:00;102542.81;;;14.33;100.00
25430;BME280;13360;48.152;-1.788;2023-05-10T06:27:25;102559.50;;;14.28;100.00
25430;BME280;13360;48.152;-1.788;2023-05-10T06:29:50;102580.91;;;14.32;100.00
25430;BME280;13360;48.152;-1.788;2023-05-10T06:32:16;102590.63;;;14.35;100.00
25430;BME280;13360;48.152;-1.788;2023-05-10T06:34:41;102600.38;;;14.38;100.00
25430;BME280;13360;48.152;-1.788;2023-05-10T06:37:08;102607.88;;;14.42;100.00
25430;BME280;13360;48.152;-1.788;2023-05-10T06:39:33;102609.59;;;14.43;100.00
25430;BME280;13360;48.152;-1.788;2023-05-10T06:41:59;102630.97;;;14.43;100.00
25430;BME280;13360;48.152;-1.788;2023-05-10T06:44:27;102629.59;;;14.50;100.00
25430;BME280;13360;48.152;-1.788;2023-05-10T06:46:53;102645.44;;;14.55;100.00
25430;BME280;13360;48.152;-1.788;2023-05-10T06:49:20;102653.78;;;14.55;100.00
25430;BME280;13360;48.152;-1.788;2023-05-10T06:51:45;102671.31;;;14.60;100.00
25430;BME280;13360;48.152;-1.788;2023-05-10T06:54:10;102689.41;;;14.68;100.00
25430;BME280;13360;48.152;-1.788;2023-05-10T06:56:35;102689.41;;;14.68;100.00
25430;BME280;13360;48.152;-1.788;2023-05-10T06:59:01;102698.84;;;14.67;100.00
25430;BME280;13360;48.152;-1.788;2023-05-10T07:01:26;102709.69;;;14.74;100.00
25430;BME280;13360;48.152;-1.788;2023-05-10T07:03:51;102733.06;;;14.73;100.00
25430;BME280;13360;48.152;-1.788;2023-05-10T07:06:17;102748.66;;;14.74;100.00
25430;BME280;13360;48.152;-1.788;2023-05-10T07:08:42;102765.59;;;14.72;100.00
25430;BME280;13360;48.152;-1.788;2023-05-10T07:11:07;102770.34;;;14.67;100.00
25430;BME280;13360;48.152;-1.788;2023-05-10T07:13:33;102774.50;;;14.64;100.00
25430;BME280;13360;48.152;-1.788;2023-05-10T07:15:59;102774.78;;;14.62;100.00
25430;BME280;13360;48.152;-1.788;2023-05-10T07:18:25;102780.63;;;14.61;100.00
25430;BME280;13360;48.152;-1.788;2023-05-10T07:20:51;102789.81;;;14.61;100.00
25430;BME280;13360;48.152;-1.788;2023-05-10T07:23:16;102795.91;;;14.58;100.00
25430;BME280;13360;48.152;-1.788;2023-05-10T07:25:44;102804.28;;;14.63;100.00
25430;BME280;13360;48.152;-1.788;2023-05-10T07:28:09;102815.69;;;14.67;100.00
25430;BME280;13360;48.152;-1.788;2023-05-10T07:30:35;102821.78;;;14.69;100.00
25430;BME280;13360;48.152;-1.788;2023-05-10T07:33:01;102826.81;;;14.72;100.00
25430;BME280;13360;48.152;-1.788;2023-05-10T07:35:26;102822.63;;;14.64;100.00
25430;BME280;13360;48.152;-1.788;2023-05-10T07:37:51;102838.47;;;14.59;100.00
25430;BME280;13360;48.152;-1.788;2023-05-10T07:40:17;102864.91;;;14.67;100.00
25430;BME280;13360;48.152;-1.788;2023-05-10T07:42:42;102898.84;;;14.74;100.00
25430;BME280;13360;48.152;-1.788;2023-05-10T07:45:07;102924.44;;;14.76;100.00
25430;BME280;13360;48.152;-1.788;2023-05-10T07:47:33;102948.94;;;14.74;100.00
25430;BME280;13360;48.152;-1.788;2023-05-10T07:49:58;102980.09;;;14.76;100.00
25430;BME280;13360;48.152;-1.788;2023-05-10T07:52:23;102998.44;;;14.72;100.00
25430;BME280;13360;48.152;-1.788;2023-05-10T07:54:48;103024.59;;;14.76;100.00
25430;BME280;13360;48.152;-1.788;2023-05-10T07:57:14;103040.25;;;14.82;100.00
25430;BME280;13360;48.152;-1.788;2023-05-10T07:59:42;103054.19;;;14.87;100.00
25430;BME280;13360;48.152;-1.788;2023-05-10T08:02:07;103059.75;;;14.87;100.00
25430;BME280;13360;48.152;-1.788;2023-05-10T08:04:33;103089.53;;;14.91;100.00
25430;BME280;13360;48.152;-1.788;2023-05-10T08:06:58;103091.50;;;14.96;100.00
25430;BME280;13360;48.152;-1.788;2023-05-10T08:09:23;103105.47;;;15.01;100.00
25430;BME280;13360;48.152;-1.788;2023-05-10T08:11:49;103119.44;;;15.11;100.00
25430;BME280;13360;48.152;-1.788;2023-05-10T08:14:14;103137.25;;;15.15;100.00
25430;BME280;13360;48.152;-1.788;2023-05-10T08:16:39;103156.19;;;15.13;100.00
25430;BME280;13360;48.152;-1.788;2023-05-10T08:19:05;103153.34;;;15.03;100.00
25430;BME280;13360;48.152;-1.788;2023-05-10T08:21:30;103176.47;;;15.09;100.00
25430;BME280;13360;48.152;-1.788;2023-05-10T08:23:56;103195.78;;;15.20;100.00
25430;BME280;13360;48.152;-1.788;2023-05-10T08:26:21;103208.66;;;15.37;100.00
25430;BME280;13360;48.152;-1.788;2023-05-10T08:28:46;103221.34;;;15.60;100.00
25430;BME280;13360;48.152;-1.788;2023-05-10T08:31:11;103204.97;;;15.68;100.00
25430;BME280;13360;48.152;-1.788;2023-05-10T08:33:37;103201.25;;;16.20;100.00
25430;BME280;13360;48.152;-1.788;2023-05-10T08:36:02;103192.63;;;16.32;100.00
25430;BME280;13360;48.152;-1.788;2023-05-10T08:38:27;103122.59;;;16.23;100.00
25430;BME280;13360;48.152;-1.788;2023-05-10T08:40:54;103076.88;;;16.19;100.00
25430;BME280;13360;48.152;-1.788;2023-05-10T08:43:21;103059.88;;;16.15;100.00
25430;BME280;13360;48.152;-1.788;2023-05-10T08:45:48;103042.31;;;16.05;100.00
25430;BME280;13360;48.152;-1.788;2023-05-10T08:48:14;103005.22;;;15.89;100.00
25430;BME280;13360;48.152;-1.788;2023-05-10T08:50:40;102981.81;;;15.80;100.00
25430;BME280;13360;48.152;-1.788;2023-05-10T08:53:10;102974.00;;;15.62;100.00
25430;BME280;13360;48.152;-1.788;2023-05-10T08:55:36;102997.69;;;15.64;100.00
25430;BME280;13360;48.152;-1.788;2023-05-10T08:58:03;103019.69;;;15.76;100.00
25430;BME280;13360;48.152;-1.788;2023-05-10T09:00:29;103041.16;;;15.75;100.00
25430;BME280;13360;48.152;-1.788;2023-05-10T09:02:54;103030.56;;;15.72;100.00
25430;BME280;13360;48.152;-1.788;2023-05-10T09:05:20;103026.94;;;15.72;100.00
25430;BME280;13360;48.152;-1.788;2023-05-10T09:07:45;103026.94;;;15.72;100.00
25430;BME280;13360;48.152;-1.788;2023-05-10T09:10:10;103018.03;;;15.65;100.00
25430;BME280;13360;48.152;-1.788;2023-05-10T09:12:36;103033.88;;;15.59;100.00
25430;BME280;13360;48.152;-1.788;2023-05-10T09:15:02;103030.25;;;15.59;100.00
25430;BME280;13360;48.152;-1.788;2023-05-10T09:17:27;103040.03;;;15.66;100.00
25430;BME280;13360;48.152;-1.788;2023-05-10T09:19:58;103042.00;;;15.71;100.00
25430;BME280;13360;48.152;-1.788;2023-05-10T09:22:24;103044.50;;;15.72;100.00
25430;BME280;13360;48.152;-1.788;2023-05-10T09:25:03;103034.47;;;15.66;100.00
25430;BME280;13360;48.152;-1.788;2023-05-10T09:27:28;103033.34;;;15.62;100.00
25430;BME280;13360;48.152;-1.788;2023-05-10T09:29:53;103066.78;;;15.62;100.00
25430;BME280;13360;48.152;-1.788;2023-05-10T09:32:20;103112.75;;;15.75;100.00
25430;BME280;13360;48.152;-1.788;2023-05-10T09:34:45;103138.16;;;15.89;100.00
25430;BME280;13360;48.152;-1.788;2023-05-10T09:37:10;103166.66;;;16.06;100.00
25430;BME280;13360;48.152;-1.788;2023-05-10T09:39:36;103200.41;;;16.20;100.00
25430;BME280;13360;48.152;-1.788;2023-05-10T09:42:06;103234.41;;;16.16;100.00
25430;BME280;13360;48.152;-1.788;2023-05-10T09:44:32;103248.06;;;16.08;100.00
25430;BME280;13360;48.152;-1.788;2023-05-10T09:46:57;103256.38;;;16.03;100.00
25430;BME280;13360;48.152;-1.788;2023-05-10T09:49:23;103262.28;;;16.06;100.00
25430;BME280;13360;48.152;-1.788;2023-05-10T09:52:01;103284.34;;;16.23;100.00
25430;BME280;13360;48.152;-1.788;2023-05-10T09:54:27;103345.53;;;16.55;100.00
25430;BME280;13360;48.152;-1.788;2023-05-10T09:56:52;103358.94;;;16.58;100.00
25430;BME280;13360;48.152;-1.788;2023-05-10T09:59:18;103349.47;;;16.59;100.00
25430;BME280;13360;48.152;-1.788;2023-05-10T10:01:44;103353.09;;;16.55;100.00
25430;BME280;13360;48.152;-1.788;2023-05-10T10:04:14;103363.13;;;16.51;100.00
25430;BME280;13360;48.152;-1.788;2023-05-10T10:06:39;103411.50;;;16.82;100.00
25430;BME280;13360;48.152;-1.788;2023-05-10T10:09:05;103449.88;;;17.17;100.00
25430;BME280;13360;48.152;-1.788;2023-05-10T10:11:31;103405.69;;;16.98;100.00
25430;BME280;13360;48.152;-1.788;2023-05-10T10:13:56;103381.38;;;16.79;100.00
25430;BME280;13360;48.152;-1.788;2023-05-10T10:16:21;103359.88;;;16.74;100.00
25430;BME280;13360;48.152;-1.788;2023-05-10T10:18:47;103389.75;;;16.84;100.00
25430;BME280;13360;48.152;-1.788;2023-05-10T10:21:13;103383.38;;;16.88;100.00
25430;BME280;13360;48.152;-1.788;2023-05-10T10:23:38;103358.19;;;16.83;100.00
25430;BME280;13360;48.152;-1.788;2023-05-10T10:26:04;103335.03;;;16.83;100.00
25430;BME280;13360;48.152;-1.788;2023-05-10T10:31:02;103383.41;;;17.19;100.00
25430;BME280;13360;48.152;-1.788;2023-05-10T10:33:39;103370.00;;;17.16;100.00
25430;BME280;13360;48.152;-1.788;2023-05-10T10:36:10;103342.88;;;17.06;100.00
25430;BME280;13360;48.152;-1.788;2023-05-10T10:38:37;103332.56;;;17.01;100.00
25430;BME280;13360;48.152;-1.788;2023-05-10T10:44:36;103305.47;;;16.92;100.00
25430;BME280;13360;48.152;-1.788;2023-05-10T10:49:25;103256.03;;;16.82;100.00
25430;BME280;13360;48.152;-1.788;2023-05-10T10:54:34;103297.09;;;17.12;100.00
25430;BME280;13360;48.152;-1.788;2023-05-10T10:57:42;103328.63;;;17.28;100.00
25430;BME280;13360;48.152;-1.788;2023-05-10T10:59:53;103336.78;;;17.29;100.00
25430;BME280;13360;48.152;-1.788;2023-05-10T11:02:46;103289.56;;;17.13;100.00
25430;BME280;13360;48.152;-1.788;2023-05-10T11:06:17;103246.28;;;16.95;100.00
25430;BME280;13360;48.152;-1.788;2023-05-10T11:10:40;103183.50;;;16.67;100.00
25430;BME280;13360;48.152;-1.788;2023-05-10T11:13:06;103181.22;;;16.59;100.00
25430;BME280;13360;48.152;-1.788;2023-05-10T11:15:33;103216.94;;;16.52;100.00
25430;BME280;13360;48.152;-1.788;2023-05-10T11:17:58;103267.69;;;16.49;100.00
25430;BME280;13360;48.152;-1.788;2023-05-10T11:20:26;103290.28;;;16.47;100.00
25430;BME280;13360;48.152;-1.788;2023-05-10T11:22:58;103312.06;;;16.50;100.00
25430;BME280;13360;48.152;-1.788;2023-05-10T11:25:26;103327.13;;;16.49;100.00
25430;BME280;13360;48.152;-1.788;2023-05-10T11:27:51;103335.78;;;16.53;100.00
25430;BME280;13360;48.152;-1.788;2023-05-10T11:30:17;103356.25;;;16.73;100.00
25430;BME280;13360;48.152;-1.788;2023-05-10T11:32:42;103419.94;;;16.92;100.00
25430;BME280;13360;48.152;-1.788;2023-05-10T11:35:08;103524.44;;;17.11;100.00
25430;BME280;13360;48.152;-1.788;2023-05-10T11:37:33;103590.66;;;17.21;100.00
25430;BME280;13360;48.152;-1.788;2023-05-10T11:39:59;103670.34;;;17.33;100.00
25430;BME280;13360;48.152;-1.788;2023-05-10T11:42:24;103717.38;;;17.52;100.00
25430;BME280;13360;48.152;-1.788;2023-05-10T11:44:49;103784.34;;;17.36;100.00
25430;BME280;13360;48.152;-1.788;2023-05-10T11:47:15;103795.94;;;17.18;100.00
25430;BME280;13360;48.152;-1.788;2023-05-10T11:49:43;103770.91;;;16.96;100.00
25430;BME280;13360;48.152;-1.788;2023-05-10T11:52:08;103759.63;;;16.81;100.00
25430;BME280;13360;48.152;-1.788;2023-05-10T11:54:35;103751.47;;;16.74;100.00
25430;BME280;13360;48.152;-1.788;2023-05-10T11:57:01;103773.53;;;16.76;100.00
25430;BME280;13360;48.152;-1.788;2023-05-10T11:59:26;103769.03;;;16.70;100.00
25430;BME280;13360;48.152;-1.788;2023-05-10T12:01:52;103758.13;;;16.68;100.00
25430;BME280;13360;48.152;-1.788;2023-05-10T12:04:17;103750.31;;;16.70;100.00
25430;BME280;13360;48.152;-1.788;2023-05-10T12:06:42;103753.44;;;16.74;100.00
25430;BME280;13360;48.152;-1.788;2023-05-10T12:09:08;103751.75;;;16.73;100.00
25430;BME280;13360;48.152;-1.788;2023-05-10T12:11:37;103742.13;;;16.64;100.00
25430;BME280;13360;48.152;-1.788;2023-05-10T12:14:03;103726.75;;;16.61;100.00
25430;BME280;13360;48.152;-1.788;2023-05-10T12:16:29;103722.81;;;16.57;100.00
25430;BME280;13360;48.152;-1.788;2023-05-10T12:18:58;103734.25;;;16.56;100.00
25430;BME280;13360;48.152;-1.788;2023-05-10T12:21:24;103766.03;;;16.55;100.00
25430;BME280;13360;48.152;-1.788;2023-05-10T12:23:50;103796.16;;;16.53;100.00
25430;BME280;13360;48.152;-1.788;2023-05-10T12:26:15;103807.31;;;16.53;100.00
25430;BME280;13360;48.152;-1.788;2023-05-10T12:28:41;103836.38;;;16.57;100.00
25430;BME280;13360;48.152;-1.788;2023-05-10T12:31:06;103852.19;;;16.68;100.00
25430;BME280;13360;48.152;-1.788;2023-05-10T12:33:35;103871.22;;;16.76;100.00
25430;BME280;13360;48.152;-1.788;2023-05-10T12:36:00;103877.72;;;16.82;100.00
25430;BME280;13360;48.152;-1.788;2023-05-10T12:38:34;103881.91;;;16.84;100.00
25430;BME280;13360;48.152;-1.788;2023-05-10T12:41:00;103884.78;;;16.89;100.00
25430;BME280;13360;48.152;-1.788;2023-05-10T12:43:25;103895.47;;;16.97;100.00
25430;BME280;13360;48.152;-1.788;2023-05-10T12:45:51;103898.03;;;17.04;100.00
25430;BME280;13360;48.152;-1.788;2023-05-10T12:48:16;103900.38;;;17.12;100.00
25430;BME280;13360;48.152;-1.788;2023-05-10T12:50:41;103901.81;;;17.20;100.00
25430;BME280;13360;48.152;-1.788;2023-05-10T12:53:06;103917.47;;;17.21;100.00
25430;BME280;13360;48.152;-1.788;2023-05-10T12:55:32;103893.41;;;17.15;100.00
25430;BME280;13360;48.152;-1.788;2023-05-10T12:57:57;103872.13;;;17.09;100.00
25430;BME280;13360;48.152;-1.788;2023-05-10T13:00:22;103863.16;;;17.06;100.00
25430;BME280;13360;48.152;-1.788;2023-05-10T13:02:48;103881.09;;;17.11;100.00